Time;durP1;ratioP1;P1;durP2;ratioP2;P2;SDS_P1;SDS_P2;PMS_P1;PMS_P2;Temp;Humidity;BMP_temperature;BMP_pressure;BME280_temperature;BME280_humidity;BME280_pressure;Samples;Min_cycle;Max_cycle;Signal;HPM_P1;HPM_P2
2022/07/04 00:00:32;;;;;;;12.17;8.00;;;15.80;99.90;15.10;100540;;;;575066;245;24047;-83
2022/07/04 00:02:57;;;;;;;9.53;7.67;;;15.70;99.90;15.10;100548;;;;575082;245;24050;-82
2022/07/04 00:05:25;;;;;;;8.13;7.33;;;15.70;99.90;15.10;100552;;;;575110;245;23997;-82
2022/07/04 00:07:53;;;;;;;9.67;7.53;;;15.60;99.90;15.00;100543;;;;575033;245;24024;-82
2022/07/04 00:10:21;;;;;;;8.47;7.63;;;15.60;99.90;15.00;100551;;;;574853;245;24149;-82
2022/07/04 00:12:52;;;;;;;9.57;7.87;;;15.60;99.90;15.00;100545;;;;583894;245;24052;-81
2022/07/04 00:15:20;;;;;;;11.47;7.47;;;15.50;99.90;14.90;100544;;;;574665;245;24017;-82
2022/07/04 00:17:49;;;;;;;7.80;7.10;;;15.50;99.90;14.90;100540;;;;574373;245;23996;-81
2022/07/04 00:20:14;;;;;;;10.77;7.97;;;15.40;99.90;14.80;100552;;;;574944;245;24067;-83
2022/07/04 00:22:42;;;;;;;9.50;8.50;;;15.40;99.90;14.80;100540;;;;579587;245;24013;-82
2022/07/04 00:25:14;;;;;;;8.73;7.83;;;15.40;99.90;14.80;100534;;;;574539;245;24000;-82
2022/07/04 00:27:38;;;;;;;14.40;7.57;;;15.40;99.90;14.80;100532;;;;582930;241;24031;-83
2022/07/04 00:30:10;;;;;;;8.37;7.57;;;15.40;99.90;14.70;100530;;;;574865;245;24018;-82
2022/07/04 00:32:34;;;;;;;9.87;8.97;;;15.40;99.90;14.70;100532;;;;574516;245;24004;-83
2022/07/04 00:35:03;;;;;;;10.70;8.27;;;15.30;99.90;14.70;100529;;;;574908;245;25043;-82
2022/07/04 00:37:35;;;;;;;12.77;8.50;;;15.30;99.90;14.70;100519;;;;583928;245;24044;-83
2022/07/04 00:40:00;;;;;;;10.77;7.77;;;15.30;99.90;14.70;100522;;;;574400;245;24065;-82
2022/07/04 00:42:31;;;;;;;12.17;8.50;;;15.20;99.90;14.60;100524;;;;575778;245;24091;-82
2022/07/04 00:44:56;;;;;;;10.10;8.37;;;15.30;99.90;14.60;100522;;;;584621;245;24039;-81
2022/07/04 00:47:24;;;;;;;11.83;8.57;;;15.20;99.90;14.60;100517;;;;584426;245;24073;-82
2022/07/04 00:49:52;;;;;;;9.73;8.47;;;15.20;99.90;14.60;100511;;;;575321;245;24089;-82
2022/07/04 00:52:23;;;;;;;7.77;7.07;;;15.20;99.90;14.60;100504;;;;575451;245;23981;-83
2022/07/04 00:54:48;;;;;;;8.77;7.93;;;15.20;99.90;14.60;100508;;;;575280;245;24028;-81
2022/07/04 00:57:16;;;;;;;10.93;8.20;;;15.20;99.90;14.60;100507;;;;584173;245;24026;-81
2022/07/04 00:59:44;;;;;;;10.77;7.80;;;15.10;99.90;14.60;100502;;;;575619;245;23989;-81
2022/07/04 01:02:12;;;;;;;9.87;8.83;;;15.20;99.90;14.60;100499;;;;575126;245;24018;-81
2022/07/04 01:04:40;;;;;;;9.10;8.03;;;15.20;99.90;14.60;100497;;;;574988;245;24131;-81
2022/07/04 01:07:08;;;;;;;9.40;8.07;;;15.20;99.90;14.60;100494;;;;575267;245;24032;-81
2022/07/04 01:09:36;;;;;;;12.33;8.50;;;15.20;99.90;14.60;100503;;;;575197;245;25033;-81
2022/07/04 01:12:07;;;;;;;12.40;8.60;;;15.20;99.90;14.60;100492;;;;574863;245;24045;-82
2022/07/04 01:14:33;;;;;;;12.27;8.50;;;15.20;99.90;14.60;100501;;;;584311;245;24018;-81
2022/07/04 01:17:00;;;;;;;9.17;8.23;;;15.10;99.90;14.60;100502;;;;575105;245;23982;-81
2022/07/04 01:19:29;;;;;;;8.83;7.90;;;15.20;99.90;14.60;100496;;;;575038;245;24080;-82
2022/07/04 01:22:01;;;;;;;11.67;8.47;;;15.20;99.90;14.60;100499;;;;583722;245;24018;-80
2022/07/04 01:24:26;;;;;;;8.47;7.63;;;15.20;99.90;14.60;100500;;;;574917;245;23991;-81
2022/07/04 01:26:54;;;;;;;9.57;8.63;;;15.20;99.90;14.60;100499;;;;574970;245;24005;-82
2022/07/04 01:29:22;;;;;;;10.37;8.47;;;15.20;99.90;14.60;100492;;;;574855;245;24047;-82
2022/07/04 01:31:50;;;;;;;10.57;8.30;;;15.20;99.90;14.60;100495;;;;583117;244;24044;-82
2022/07/04 01:34:17;;;;;;;12.33;8.20;;;15.20;99.90;14.60;100491;;;;574915;245;24056;-82
2022/07/04 01:36:45;;;;;;;12.17;8.10;;;15.20;99.90;14.70;100495;;;;575087;245;24032;-82
2022/07/04 01:39:14;;;;;;;10.23;9.23;;;15.30;99.90;14.70;100497;;;;575007;245;23991;-82
2022/07/04 01:41:42;;;;;;;11.00;8.37;;;15.30;99.90;14.70;100494;;;;574986;245;24043;-81
2022/07/04 01:44:10;;;;;;;8.57;7.77;;;15.30;99.90;14.70;100500;;;;574846;245;24042;-82
2022/07/04 01:46:38;;;;;;;8.63;7.77;;;15.30;99.90;14.60;100493;;;;574784;245;24092;-81
2022/07/04 01:49:06;;;;;;;9.13;8.27;;;15.20;99.90;14.60;100496;;;;574916;245;23983;-81
2022/07/04 01:51:34;;;;;;;12.73;8.60;;;15.20;99.90;14.60;100501;;;;574755;245;23992;-82
2022/07/04 01:54:02;;;;;;;11.73;8.27;;;15.20;99.90;14.60;100499;;;;575815;245;23996;-82
2022/07/04 01:56:30;;;;;;;9.57;8.50;;;15.20;99.90;14.60;100493;;;;575980;245;24044;-83
2022/07/04 01:58:59;;;;;;;11.40;8.13;;;15.20;99.90;14.60;100495;;;;576104;245;24027;-82
2022/07/04 02:01:29;;;;;;;10.67;9.30;;;15.20;99.90;14.60;100502;;;;575191;245;24003;-82
2022/07/04 02:04:01;;;;;;;10.43;8.70;;;15.20;99.90;14.60;100496;;;;575324;245;23977;-82
2022/07/04 02:06:33;;;;;;;9.27;7.83;;;15.20;99.90;14.60;100497;;;;575342;245;23994;-82
2022/07/04 02:09:19;;;;;;;9.93;9.03;;;15.20;99.90;14.60;100498;;;;574905;245;24010;-82
2022/07/04 02:14:32;;;;;;;11.37;8.47;;;15.10;99.90;14.60;100494;;;;583755;245;23977;-81
2022/07/04 02:17:00;;;;;;;13.00;9.20;;;15.10;99.90;14.60;100492;;;;575176;245;23989;-82
2022/07/04 02:19:29;;;;;;;13.07;9.63;;;15.20;99.90;14.60;100497;;;;583813;245;23991;-78
2022/07/04 02:21:57;;;;;;;10.13;8.33;;;15.20;99.90;14.60;100491;;;;575526;245;23998;-80
2022/07/04 02:24:26;;;;;;;10.60;9.27;;;15.20;99.90;14.60;100488;;;;575066;245;23988;-80
2022/07/04 02:26:54;;;;;;;10.80;8.93;;;15.20;99.90;14.60;100487;;;;574772;245;24116;-81
2022/07/04 02:29:23;;;;;;;14.00;10.10;;;15.30;99.90;14.70;100482;;;;583867;245;24008;-80
2022/07/04 02:31:54;;;;;;;11.27;9.23;;;15.30;99.90;14.70;100482;;;;583820;245;24079;-82
2022/07/04 02:34:22;;;;;;;13.80;9.17;;;15.30;99.90;14.70;100495;;;;583979;242;24049;-83
2022/07/04 02:36:50;;;;;;;8.77;7.87;;;15.30;99.90;14.80;100490;;;;575721;245;23972;-81
2022/07/04 02:39:18;;;;;;;10.00;9.00;;;15.30;99.90;14.80;100489;;;;575681;245;23984;-82
2022/07/04 02:41:49;;;;;;;12.07;8.67;;;15.40;99.90;14.90;100485;;;;574900;245;24019;-82
2022/07/04 02:44:14;;;;;;;10.13;8.80;;;15.50;99.90;14.90;100479;;;;574690;245;24042;-81
2022/07/04 02:46:42;;;;;;;10.50;9.30;;;15.50;99.90;15.00;100483;;;;574814;245;24010;-82
2022/07/04 02:49:10;;;;;;;12.87;9.00;;;15.60;99.90;15.00;100481;;;;574962;245;24093;-82
2022/07/04 02:51:37;;;;;;;9.73;8.30;;;15.60;99.90;15.10;100494;;;;574921;245;24005;-81
2022/07/04 02:54:05;;;;;;;10.53;8.40;;;15.60;99.90;15.20;100487;;;;575258;245;23980;-82
2022/07/04 02:56:33;;;;;;;9.37;8.47;;;15.70;99.90;15.20;100489;;;;574817;245;24019;-81
2022/07/04 02:59:01;;;;;;;9.17;8.13;;;15.80;99.90;15.30;100487;;;;575294;245;24005;-81
2022/07/04 03:01:29;;;;;;;11.80;8.20;;;15.90;99.90;15.40;100485;;;;575252;245;24014;-81
2022/07/04 03:03:57;;;;;;;8.93;8.13;;;15.90;99.90;15.50;100494;;;;575263;245;23978;-81
2022/07/04 03:06:26;;;;;;;11.17;8.03;;;16.10;99.90;15.60;100503;;;;576555;245;24023;-81
2022/07/04 03:08:54;;;;;;;8.47;7.67;;;16.20;99.90;15.70;100494;;;;576271;245;24009;-82
2022/07/04 03:11:23;;;;;;;8.37;7.23;;;16.30;99.90;15.70;100494;;;;575933;245;24050;-82
2022/07/04 03:13:51;;;;;;;8.03;7.00;;;16.20;99.90;15.80;100493;;;;575860;245;24091;-81
2022/07/04 03:16:19;;;;;;;8.87;7.57;;;16.30;99.90;15.90;100491;;;;575372;245;23993;-82
2022/07/04 03:18:47;;;;;;;7.60;6.90;;;16.40;99.90;15.90;100494;;;;575703;245;23991;-82
2022/07/04 03:21:15;;;;;;;11.57;7.20;;;16.50;99.90;16.20;100501;;;;575392;245;24052;-82
2022/07/04 03:23:57;;;;;;;7.47;6.77;;;17.00;99.90;16.60;100496;;;;575594;245;23974;-82
2022/07/04 03:26:11;;;;;;;8.13;6.73;;;17.00;99.90;16.90;100498;;;;574825;245;24019;-81
2022/07/04 03:28:39;;;;;;;8.00;7.30;;;17.30;99.90;17.30;100508;;;;574997;245;23991;-81
2022/07/04 03:31:07;;;;;;;8.10;7.30;;;17.70;99.90;17.70;100505;;;;574757;245;24032;-81
2022/07/04 03:33:35;;;;;;;7.27;6.63;;;18.20;99.90;17.90;100500;;;;575017;245;24022;-82
2022/07/04 03:36:03;;;;;;;7.40;6.37;;;18.40;99.90;18.40;100502;;;;575182;245;24047;-81
2022/07/04 03:38:31;;;;;;;7.03;6.40;;;18.80;99.90;19.10;100505;;;;575111;245;24003;-81
2022/07/04 03:40:59;;;;;;;6.07;5.57;;;19.50;99.90;19.90;100505;;;;574913;245;24005;-82
2022/07/04 03:43:27;;;;;;;6.83;5.03;;;20.30;99.90;20.70;100501;;;;574853;245;24002;-82
2022/07/04 03:45:55;;;;;;;5.07;4.67;;;21.20;99.90;21.50;100503;;;;574800;245;24050;-82
2022/07/04 03:48:23;;;;;;;4.17;3.70;;;22.10;99.90;22.30;100517;;;;574981;245;23987;-82
2022/07/04 03:50:51;;;;;;;3.00;2.73;;;23.70;99.90;23.10;100502;;;;574879;245;24024;-81
2022/07/04 03:53:20;;;;;;;2.37;2.17;;;24.50;99.90;23.90;100503;;;;575218;245;24020;-80
2022/07/04 03:55:49;;;;;;;1.87;1.73;;;25.30;99.90;24.70;100499;;;;575230;245;24027;-82
2022/07/04 03:58:17;;;;;;;2.10;1.93;;;25.30;99.90;25.60;100501;;;;575181;245;23158;-82
2022/07/04 04:00:45;;;;;;;2.03;1.80;;;26.10;99.90;26.40;100499;;;;575188;245;24017;-82
2022/07/04 04:05:43;;;;;;;1.77;1.47;;;27.70;99.90;27.80;100498;;;;575726;245;23037;-84
2022/07/04 04:08:11;;;;;;;2.63;1.77;;;28.50;99.90;28.40;100499;;;;575191;245;22996;-82
2022/07/04 04:10:39;;;;;;;1.93;1.57;;;29.10;99.90;28.70;100504;;;;575222;245;24025;-83
2022/07/04 04:13:07;;;;;;;1.70;1.60;;;29.40;99.90;29.30;100490;;;;575277;245;23012;-83
2022/07/04 04:15:35;;;;;;;1.92;1.83;;;30.10;99.40;30.10;100495;;;;575234;245;26180;-81
2022/07/04 04:18:03;;;;;;;1.83;1.73;;;30.80;95.60;30.40;100490;;;;576536;245;22991;-82
2022/07/04 04:20:31;;;;;;;2.92;1.75;;;31.20;91.40;30.00;100496;;;;576342;245;23006;-82
2022/07/04 04:22:59;;;;;;;3.20;1.42;;;31.00;89.90;29.60;100482;;;;575755;245;23010;-81
2022/07/04 04:25:26;;;;;;;3.25;1.60;;;30.60;88.20;29.20;100496;;;;575571;245;23044;-82
2022/07/04 04:27:54;;;;;;;6.82;1.87;;;30.20;87.90;28.40;100494;;;;575233;245;23014;-82
2022/07/04 04:30:22;;;;;;;2.80;1.90;;;29.50;88.20;27.50;100488;;;;575460;245;23056;-82
2022/07/04 04:32:50;;;;;;;2.07;1.97;;;28.60;88.90;26.50;100490;;;;575343;245;22991;-82
2022/07/04 04:35:19;;;;;;;2.40;1.87;;;26.80;92.10;25.90;100496;;;;575331;245;24054;-82
2022/07/04 04:37:48;;;;;;;3.27;1.90;;;26.20;93.40;25.40;100499;;;;575157;245;24061;-83
2022/07/04 04:40:16;;;;;;;4.13;1.63;;;26.20;93.40;25.30;100498;;;;575449;245;22991;-80
2022/07/04 04:42:43;;;;;;;2.03;1.87;;;26.00;94.40;25.50;100497;;;;575039;245;23978;-82
2022/07/04 04:45:11;;;;;;;3.27;1.93;;;26.10;95.00;26.10;100490;;;;574982;245;22993;-81
2022/07/04 04:47:40;;;;;;;2.73;2.10;;;26.60;95.20;27.30;100490;;;;575128;245;22995;-82
2022/07/04 04:50:11;;;;;;;2.27;2.10;;;27.70;94.30;28.60;100495;;;;574897;245;23049;-82
2022/07/04 04:52:35;;;;;;;3.00;1.93;;;29.00;92.50;30.10;100491;;;;583976;244;23062;-82
2022/07/04 04:55:03;;;;;;;4.90;2.17;;;30.60;90.20;31.40;100497;;;;574882;245;23005;-82
2022/07/04 04:57:31;;;;;;;3.05;2.22;;;32.10;84.30;32.60;100502;;;;583531;245;22994;-81
2022/07/04 04:59:59;;;;;;;6.87;2.25;;;33.40;79.80;33.70;100499;;;;574917;245;24004;-82
2022/07/04 05:02:30;;;;;;;3.30;2.10;;;34.60;74.00;34.90;100495;;;;574383;245;23041;-81
2022/07/04 05:04:58;;;;;;;3.97;2.40;;;35.80;69.10;35.70;100498;;;;582928;241;23007;-82
2022/07/04 05:07:23;;;;;;;5.68;1.90;;;36.70;64.60;36.60;100500;;;;574298;245;23066;-83
2022/07/04 05:09:50;;;;;;;2.95;2.20;;;37.60;61.10;37.50;100505;;;;575299;245;23031;-82
2022/07/04 05:12:18;;;;;;;1.92;1.83;;;38.50;58.40;38.40;100504;;;;574833;245;23044;-82
2022/07/04 05:14:46;;;;;;;2.10;1.90;;;39.40;55.40;39.30;100506;;;;574803;245;24042;-83
2022/07/04 05:17:14;;;;;;;1.87;1.67;;;40.30;53.40;39.60;100505;;;;583676;245;23008;-83
2022/07/04 05:19:42;;;;;;;1.95;1.85;;;40.60;52.00;40.50;100508;;;;569854;245;34355;-82
2022/07/04 05:22:10;;;;;;;4.15;1.40;;;41.20;48.80;39.30;100512;;;;574992;245;23065;-81
2022/07/04 05:24:41;;;;;;;2.35;1.92;;;40.50;48.20;37.70;100511;;;;574716;245;23043;-81
2022/07/04 05:27:09;;;;;;;3.20;1.90;;;37.80;51.50;36.40;100513;;;;583524;245;23061;-82
2022/07/04 05:29:37;;;;;;;3.65;1.90;;;37.80;50.60;35.10;100509;;;;584334;244;24057;-82
2022/07/04 05:32:09;;;;;;;7.30;2.15;;;36.50;53.00;34.10;100510;;;;575782;245;22998;-81
2022/07/04 05:34:33;;;;;;;3.53;1.77;;;35.30;54.10;33.90;100504;;;;585691;241;23120;-82
2022/07/04 05:37:05;;;;;;;6.70;1.75;;;34.70;55.40;34.00;100509;;;;575227;245;24075;-82
2022/07/04 05:39:29;;;;;;;8.57;2.30;;;34.60;56.30;33.70;100512;;;;578985;242;34327;-81
2022/07/04 05:42:00;;;;;;;10.52;2.05;;;34.40;56.40;33.30;100502;;;;575514;245;23016;-82
2022/07/04 05:44:28;;;;;;;8.82;2.20;;;34.00;57.00;34.10;100504;;;;575173;245;24044;-80
2022/07/04 05:46:57;;;;;;;7.60;2.40;;;34.40;57.60;34.60;100505;;;;570512;245;34416;-80
2022/07/04 05:49:22;;;;;;;5.12;2.35;;;35.00;56.30;33.90;100513;;;;582943;245;24058;-82
2022/07/04 05:51:50;;;;;;;2.42;1.70;;;34.60;55.60;33.00;100507;;;;575050;245;22994;-83
2022/07/04 05:54:19;;;;;;;7.28;2.60;;;33.10;58.00;32.30;100505;;;;575465;245;23042;-83
2022/07/04 05:56:47;;;;;;;32.33;4.75;;;32.40;58.80;31.70;100499;;;;575194;245;23007;-82
2022/07/04 05:59:15;;;;;;;19.20;3.37;;;32.30;58.80;32.60;100498;;;;575322;245;23063;-83
2022/07/04 06:01:43;;;;;;;21.33;3.17;;;32.80;59.90;34.80;100495;;;;575494;245;23013;-82
2022/07/04 06:04:11;;;;;;;8.98;1.98;;;34.60;56.70;36.80;100495;;;;575565;245;22998;-82
2022/07/04 06:06:39;;;;;;;8.18;2.55;;;36.70;53.60;38.60;100495;;;;575038;245;23025;-81
2022/07/04 06:09:07;;;;;;;5.28;2.20;;;38.60;51.10;39.90;100490;;;;574938;245;23058;-81
2022/07/04 06:11:35;;;;;;;8.02;2.17;;;40.10;49.20;41.10;100489;;;;574822;245;23071;-80
2022/07/04 06:14:03;;;;;;;5.35;1.70;;;41.40;46.00;42.00;100502;;;;574716;245;23008;-80
2022/07/04 06:16:31;;;;;;;11.60;3.47;;;42.40;45.60;41.60;100498;;;;569888;245;34322;-81
2022/07/04 06:18:59;;;;;;;6.85;3.12;;;42.50;44.80;41.00;100487;;;;574768;245;24106;-80
2022/07/04 06:21:27;;;;;;;7.32;3.12;;;42.00;45.30;42.10;100490;;;;574904;245;24103;-81
2022/07/04 06:23:54;;;;;;;9.48;1.92;;;42.60;44.70;43.40;100495;;;;574793;245;23005;-82
2022/07/04 06:26:22;;;;;;;20.23;3.40;;;43.70;43.80;44.50;100490;;;;574705;245;23030;-82
2022/07/04 06:28:50;;;;;;;4.85;2.20;;;44.80;42.30;45.40;100497;;;;574768;245;23006;-82
2022/07/04 06:31:18;;;;;;;6.32;2.05;;;45.70;41.60;46.20;100499;;;;574741;245;24026;-81
2022/07/04 06:36:32;;;;;;;7.97;2.30;;;47.30;39.80;47.90;100502;;;;574725;245;23073;-81
2022/07/04 06:39:04;;;;;;;7.35;1.95;;;48.20;39.00;48.50;100503;;;;574916;245;23069;-82
2022/07/04 06:41:28;;;;;;;6.72;1.92;;;48.80;37.60;49.00;100500;;;;576140;245;23009;-81
2022/07/04 06:43:56;;;;;;;3.35;1.77;;;49.40;37.00;49.50;100499;;;;584740;245;23021;-81
2022/07/04 06:46:24;;;;;;;3.87;1.70;;;49.80;36.60;49.70;100503;;;;575561;245;23070;-81
2022/07/04 06:48:52;;;;;;;8.10;2.08;;;50.00;36.20;50.10;100511;;;;575859;245;23015;-81
2022/07/04 06:51:20;;;;;;;6.93;2.65;;;51.00;35.60;50.80;100505;;;;575406;245;23030;-82
2022/07/04 06:53:49;;;;;;;12.02;2.28;;;51.60;35.40;51.50;100514;;;;575257;245;22993;-82
2022/07/04 06:56:18;;;;;;;4.32;2.10;;;51.80;33.80;51.30;100511;;;;575254;245;23011;-83
2022/07/04 06:58:45;;;;;;;8.35;2.58;;;51.70;33.70;51.30;100510;;;;574648;245;24067;-81
2022/07/04 07:01:13;;;;;;;15.30;3.53;;;51.70;33.80;51.50;100506;;;;570132;245;34413;-80
2022/07/04 07:03:42;;;;;;;11.30;3.78;;;52.00;34.00;51.30;100520;;;;575449;245;23003;-80
2022/07/04 07:06:10;;;;;;;6.47;2.72;;;52.00;34.00;50.70;100517;;;;575436;245;22992;-82
2022/07/04 07:08:38;;;;;;;7.43;2.30;;;51.60;34.40;48.70;100527;;;;584274;245;23026;-81
2022/07/04 07:11:17;;;;;;;5.37;2.00;;;50.00;35.00;46.80;100525;;;;575403;245;22987;-82
2022/07/04 07:13:45;;;;;;;11.30;2.50;;;48.20;35.80;45.20;100525;;;;575459;245;23007;-81
2022/07/04 07:16:13;;;;;;;5.35;2.00;;;46.50;37.70;43.90;100525;;;;575028;245;23018;-83
2022/07/04 07:18:41;;;;;;;4.05;1.75;;;45.00;39.10;42.90;100526;;;;574841;245;23011;-81
2022/07/04 07:21:09;;;;;;;4.68;2.12;;;43.80;40.40;42.10;100523;;;;584000;245;23023;-82
2022/07/04 07:23:40;;;;;;;2.65;1.92;;;42.80;41.50;41.20;100522;;;;575116;245;23072;-82
2022/07/04 07:26:12;;;;;;;3.72;1.62;;;41.80;42.90;40.20;100515;;;;575101;245;24069;-81
2022/07/04 07:28:36;;;;;;;5.15;2.05;;;40.80;44.40;39.10;100517;;;;584606;245;23024;-81
2022/07/04 07:31:04;;;;;;;4.30;2.15;;;39.80;46.00;38.20;100528;;;;585092;245;23177;-82
2022/07/04 07:33:32;;;;;;;7.45;3.33;;;37.90;48.60;37.30;100535;;;;585142;245;24052;-82
2022/07/04 07:36:00;;;;;;;7.45;2.28;;;37.80;48.50;36.70;100533;;;;585155;245;23022;-82
2022/07/04 07:38:28;;;;;;;6.40;2.10;;;37.20;49.70;36.40;100535;;;;585186;245;23019;-82
2022/07/04 07:40:57;;;;;;;4.55;1.80;;;37.50;52.40;37.70;100534;;;;585342;245;23012;-81
2022/07/04 07:43:25;;;;;;;3.05;1.85;;;37.50;52.30;39.50;100526;;;;585100;245;23038;-81
2022/07/04 07:45:53;;;;;;;6.37;2.10;;;39.10;50.10;40.80;100532;;;;585153;245;23052;-82
2022/07/04 07:48:20;;;;;;;1.85;1.75;;;40.70;47.80;40.80;100532;;;;585059;245;23024;-82
2022/07/04 07:50:49;;;;;;;4.30;1.30;;;40.80;44.60;40.30;100521;;;;585151;243;23039;-82
2022/07/04 07:53:17;;;;;;;3.20;1.52;;;40.80;44.60;39.40;100527;;;;586662;244;23053;-83
2022/07/04 07:55:45;;;;;;;2.83;1.25;;;40.20;44.30;38.20;100528;;;;586184;245;22999;-82
2022/07/04 07:58:13;;;;;;;4.25;1.62;;;38.00;45.80;37.00;100523;;;;586471;245;23037;-81
2022/07/04 08:00:45;;;;;;;1.02;1.02;;;37.90;45.70;35.80;100527;;;;585969;245;23031;-82
2022/07/04 08:05:55;;;;;;;2.42;1.27;;;35.50;47.70;33.50;100526;;;;585817;245;23014;-82
2022/07/04 08:08:23;;;;;;;2.87;1.30;;;34.30;49.50;32.90;100525;;;;585629;245;23067;-81
2022/07/04 08:10:51;;;;;;;3.40;1.00;;;33.40;51.10;32.20;100521;;;;585277;241;24063;-82
2022/07/04 08:13:19;;;;;;;3.08;1.35;;;32.70;52.50;31.40;100527;;;;585392;245;23032;-81
2022/07/04 08:15:50;;;;;;;4.87;1.37;;;31.90;53.40;30.60;100527;;;;585406;245;23032;-81
2022/07/04 08:18:18;;;;;;;2.37;1.58;;;31.10;54.40;29.80;100525;;;;585041;245;23059;-80
2022/07/04 08:20:42;;;;;;;4.35;1.52;;;30.40;55.90;29.20;100528;;;;584980;242;23069;-80
2022/07/04 08:23:14;;;;;;;3.60;1.58;;;29.60;57.50;28.60;100527;;;;585357;245;23039;-83
2022/07/04 08:25:38;;;;;;;6.87;2.27;;;29.00;58.70;28.00;100527;;;;585313;245;24063;-82
2022/07/04 08:28:06;;;;;;;3.30;2.27;;;28.40;59.80;27.50;100524;;;;585210;245;25173;-81
2022/07/04 08:30:34;;;;;;;3.87;1.90;;;27.80;61.30;27.10;100507;;;;585100;245;23035;-81
2022/07/04 08:33:02;;;;;;;4.93;3.20;;;27.40;62.90;26.70;100517;;;;585138;245;24017;-82
2022/07/04 08:35:30;;;;;;;5.47;3.33;;;26.90;64.30;26.20;100524;;;;585186;245;23060;-83
2022/07/04 08:37:57;;;;;;;2.10;1.77;;;26.50;65.80;25.90;100514;;;;585191;245;23015;-81
2022/07/04 08:40:26;;;;;;;3.43;2.10;;;25.80;68.70;25.60;100518;;;;585230;245;24018;-82
2022/07/04 08:42:54;;;;;;;1.60;1.50;;;25.80;68.70;25.30;100522;;;;584641;241;23987;-81
2022/07/04 08:45:27;;;;;;;2.47;1.80;;;25.50;69.70;25.00;100508;;;;585172;245;24025;-81
2022/07/04 08:47:55;;;;;;;3.07;1.60;;;25.20;70.90;24.70;100511;;;;585063;242;24032;-82
2022/07/04 08:50:27;;;;;;;2.73;2.13;;;24.70;72.40;24.50;100507;;;;584528;243;23054;-81
2022/07/04 08:52:55;;;;;;;2.00;1.90;;;24.50;73.20;24.30;100508;;;;584945;242;24041;-81
2022/07/04 08:58:31;;;;;;;2.57;2.37;;;24.40;74.20;24.00;100518;;;;585061;245;24017;-82
2022/07/04 09:00:58;;;;;;;4.47;1.80;;;24.30;74.90;23.90;100518;;;;585398;245;24022;-80
2022/07/04 09:03:26;;;;;;;5.47;2.20;;;24.20;75.70;23.70;100525;;;;586014;241;24014;-81
2022/07/04 09:05:57;;;;;;;2.70;2.33;;;24.00;76.60;23.60;100508;;;;586454;245;23989;-80
2022/07/04 09:08:21;;;;;;;5.13;2.03;;;23.90;77.90;23.50;100515;;;;585664;241;24035;-81
2022/07/04 09:10:49;;;;;;;5.27;2.30;;;23.90;79.00;23.40;100501;;;;586044;241;23993;-81
2022/07/04 09:13:20;;;;;;;2.30;2.10;;;23.80;80.00;23.30;100472;;;;585667;241;24021;-81
2022/07/04 09:15:48;;;;;;;2.17;1.77;;;23.70;81.00;23.20;100455;;;;585748;245;24021;-81
2022/07/04 09:18:31;;;;;;;2.40;2.20;;;23.60;82.80;23.10;100415;;;;585713;241;24040;-79
2022/07/04 09:21:02;;;;;;;2.40;2.30;;;23.40;86.00;22.90;100381;;;;585975;241;23997;-80
2022/07/04 09:23:30;;;;;;;19.73;3.57;;;23.30;86.00;22.70;100383;;;;585502;245;24012;-80
2022/07/04 09:26:17;;;;;;;20.67;3.57;;;23.20;86.50;22.50;100382;;;;585160;241;24022;-82
2022/07/04 09:28:56;;;;;;;9.30;2.92;;;23.00;88.90;22.40;100392;;;;579779;241;34454;-82
2022/07/04 09:31:28;;;;;;;7.67;4.07;;;22.80;90.90;22.40;100402;;;;585026;241;23994;-80
2022/07/04 09:34:02;;;;;;;3.27;2.80;;;22.80;90.90;22.40;100399;;;;585450;244;23092;-82
2022/07/04 09:36:29;;;;;;;4.83;2.60;;;22.90;91.30;22.50;100411;;;;585052;241;24051;-82
2022/07/04 09:39:15;;;;;;;3.53;2.60;;;23.00;92.10;22.60;100409;;;;585201;245;24004;-80
2022/07/04 09:41:57;;;;;;;3.13;1.83;;;23.00;92.40;22.80;100412;;;;584523;245;23051;-81
2022/07/04 09:44:34;;;;;;;10.93;5.73;;;23.20;92.70;23.00;100421;;;;585115;241;24010;-82
2022/07/04 09:47:06;;;;;;;6.03;2.57;;;23.50;93.30;23.40;100420;;;;585162;245;24042;-81
2022/07/04 09:49:30;;;;;;;4.63;2.70;;;23.80;93.40;23.60;100419;;;;582784;242;24026;-82
2022/07/04 09:51:58;;;;;;;2.87;2.60;;;24.00;93.10;23.90;100425;;;;585119;245;24044;-81
2022/07/04 09:54:34;;;;;;;7.97;4.20;;;24.30;93.00;24.20;100425;;;;585085;245;23994;-81
2022/07/04 09:57:02;;;;;;;3.43;2.40;;;24.60;92.80;24.50;100434;;;;585180;245;24026;-82
2022/07/04 09:59:31;;;;;;;3.07;2.10;;;25.10;91.90;24.70;100441;;;;585044;242;23998;-83
2022/07/04 10:02:11;;;;;;;4.00;2.03;;;25.10;91.90;24.80;100434;;;;585635;245;23023;-82
2022/07/04 10:04:55;;;;;;;6.30;2.30;;;25.30;91.70;24.80;100436;;;;585127;241;24004;-80
2022/07/04 10:07:47;;;;;;;5.80;3.93;;;25.30;91.60;24.70;100444;;;;584872;242;23995;-83
2022/07/04 10:10:28;;;;;;;20.83;11.63;;;25.30;91.50;24.60;100442;;;;585474;245;23060;-79
2022/07/04 10:12:56;;;;;;;13.53;6.33;;;25.10;91.20;24.50;100445;;;;585870;242;24001;-83
2022/07/04 10:15:24;;;;;;;5.87;3.33;;;24.90;91.20;24.50;100451;;;;586461;241;24061;-82
2022/07/04 10:17:52;;;;;;;3.70;2.67;;;25.00;91.70;24.60;100453;;;;586480;245;23985;-80
2022/07/04 10:20:20;;;;;;;1.90;1.80;;;25.00;91.70;26.00;100451;;;;586213;245;23026;-81
2022/07/04 10:22:51;;;;;;;6.50;1.80;;;26.00;91.90;28.60;100446;;;;586185;245;23018;-81
2022/07/04 10:25:16;;;;;;;1.67;1.50;;;28.40;89.40;31.50;100441;;;;585852;241;23043;-81
2022/07/04 10:27:48;;;;;;;3.47;1.60;;;34.30;68.20;34.10;100445;;;;585887;245;23066;-79
2022/07/04 10:30:15;;;;;;;1.20;1.20;;;34.20;68.00;36.30;100439;;;;585541;245;23024;-83
2022/07/04 10:32:46;;;;;;;2.90;2.08;;;36.70;58.50;38.00;100439;;;;585648;241;23049;-84
2022/07/04 10:35:17;;;;;;;2.83;1.65;;;39.70;50.70;38.80;100441;;;;585513;242;23046;-83
2022/07/04 10:38:08;;;;;;;3.30;1.92;;;39.60;49.90;39.40;100445;;;;583441;241;23025;-82
2022/07/04 10:40:47;;;;;;;3.60;1.40;;;40.50;48.30;39.50;100445;;;;585329;245;23007;-82
2022/07/04 10:43:31;;;;;;;8.93;1.62;;;40.70;46.50;39.60;100442;;;;585612;241;24084;-83
2022/07/04 10:46:17;;;;;;;6.82;1.50;;;40.70;46.50;39.40;100444;;;;585740;245;23092;-82
2022/07/04 10:48:56;;;;;;;4.07;1.62;;;40.40;45.90;38.20;100442;;;;585460;241;23015;-81
2022/07/04 10:51:48;;;;;;;9.50;1.73;;;39.20;46.00;36.70;100445;;;;585475;241;23066;-82
2022/07/04 10:54:23;;;;;;;4.95;1.45;;;36.40;49.00;35.50;100438;;;;585458;245;24088;-81
2022/07/04 10:56:50;;;;;;;4.95;1.73;;;36.30;48.90;34.80;100444;;;;584646;244;23033;-82
2022/07/04 10:59:27;;;;;;;1.62;1.52;;;35.40;51.20;34.30;100448;;;;584811;242;23007;-82
2022/07/04 11:02:07;;;;;;;2.03;1.70;;;34.70;51.80;33.70;100454;;;;585291;242;23019;-82
2022/07/04 11:04:54;;;;;;;1.87;1.45;;;34.00;53.00;33.00;100441;;;;585815;245;23029;-81
2022/07/04 11:07:30;;;;;;;3.55;1.60;;;33.30;54.90;32.20;100440;;;;583482;241;23022;-82
2022/07/04 11:10:15;;;;;;;1.50;1.45;;;32.50;54.90;31.60;100448;;;;585351;245;23030;-82
2022/07/04 11:12:56;;;;;;;2.70;2.28;;;31.90;55.50;31.10;100441;;;;585296;242;23019;-83
2022/07/04 11:15:28;;;;;;;11.12;1.70;;;30.90;57.60;30.70;100441;;;;585525;245;23037;-82
2022/07/04 11:18:10;;;;;;;4.87;1.30;;;30.90;57.60;30.40;100439;;;;585303;245;24072;-83
2022/07/04 11:20:38;;;;;;;1.20;1.10;;;30.60;57.60;30.00;100433;;;;585519;245;23022;-82
2022/07/04 11:23:09;;;;;;;2.40;1.33;;;30.30;58.20;29.80;100442;;;;585116;245;23011;-82
2022/07/04 11:25:37;;;;;;;1.52;1.42;;;30.00;58.50;29.60;100438;;;;585463;243;23060;-83
2022/07/04 11:28:36;;;;;;;0.95;0.93;;;29.80;59.70;29.40;100437;;;;586833;241;23014;-82
2022/07/04 11:31:02;;;;;;;1.10;1.10;;;29.70;59.80;29.20;100441;;;;586316;245;24033;-81